Makushino, Russia
Current Conditions -  °F | °C
As of 7:30 AM on Sunday 26 Oct 2014 (Local Time) from UACP Reporting Station
Clear Clear  
Wind Chill: -20°   Ceiling: Unl
Heat Index: -6°   Visibility: 6mi
Dew Point: -8°   Wind: 7mph
Humidity: 92%   Direction: 230°SW
Pressure: 29.94"   Gusts: NA
Location:  55.21°N, 67.24°E
Report Text: UACP 260230Z 23003MPS CAVOK M21/M22 Q1014 R23/4/3037 NOSIG RMKQFE748/0997
Loading
Personal Weather Stations






























Interactive Weather Map
Tropical Storm Tracking
New forecast layout! Learn more

10-Day Weather Forecast

Advertisements
Track Severe Weather on mobile